Time;durP1;ratioP1;P1;durP2;ratioP2;P2;SDS_P1;SDS_P2;PMS_P1;PMS_P2;Temp;Humidity;BMP_temperature;BMP_pressure;BME280_temperature;BME280_humidity;BME280_pressure;Samples;Min_cycle;Max_cycle;Signal;HPM_P1;HPM_P2
2023/10/31 00:02:24;;;;;;;1.60;0.70;;;;;;;;;;4970639;28;21014;-57
2023/10/31 00:04:51;;;;;;;1.80;0.80;;;;;;;;;;4969981;28;20508;-57
2023/10/31 00:07:19;;;;;;;2.30;0.70;;;;;;;;;;4970759;28;20445;-58
2023/10/31 00:09:47;;;;;;;3.80;1.20;;;;;;;;;;4970494;28;20523;-58
2023/10/31 00:12:14;;;;;;;4.33;1.40;;;;;;;;;;4970621;28;20504;-59
2023/10/31 00:14:41;;;;;;;3.10;1.37;;;;;;;;;;4973731;28;20469;-57
2023/10/31 00:17:08;;;;;;;2.43;1.40;;;;;;;;;;4973868;28;20445;-57
2023/10/31 00:19:36;;;;;;;2.10;1.30;;;;;;;;;;4973356;28;20476;-58
2023/10/31 00:22:03;;;;;;;2.07;1.20;;;;;;;;;;4974422;28;20452;-57
2023/10/31 00:24:32;;;;;;;2.10;1.60;;;;;;;;;;4974186;28;20472;-58
2023/10/31 00:26:59;;;;;;;2.53;1.93;;;;;;;;;;4973955;28;20894;-57
2023/10/31 00:29:26;;;;;;;6.07;4.30;;;;;;;;;;4973346;28;20951;-57
2023/10/31 00:31:54;;;;;;;3.67;2.80;;;;;;;;;;4973512;28;20511;-57
2023/10/31 00:34:22;;;;;;;3.13;2.50;;;;;;;;;;4973780;28;20480;-57
2023/10/31 00:36:49;;;;;;;3.00;2.57;;;;;;;;;;4973895;28;20912;-57
2023/10/31 00:39:16;;;;;;;2.93;2.63;;;;;;;;;;4973471;28;20504;-56
2023/10/31 00:41:46;;;;;;;3.10;2.40;;;;;;;;;;4973621;28;20444;-58
2023/10/31 00:44:14;;;;;;;4.30;2.57;;;;;;;;;;4974060;28;20519;-58
2023/10/31 00:46:41;;;;;;;5.47;2.60;;;;;;;;;;4972960;28;20457;-57
2023/10/31 00:49:09;;;;;;;2.73;1.63;;;;;;;;;;4972672;28;20832;-57
2023/10/31 00:51:36;;;;;;;1.30;0.60;;;;;;;;;;4972748;28;20512;-56
2023/10/31 00:54:03;;;;;;;3.73;0.90;;;;;;;;;;4973989;28;20527;-56
2023/10/31 00:56:30;;;;;;;2.27;1.07;;;;;;;;;;4973052;28;20869;-56
2023/10/31 00:58:59;;;;;;;1.50;0.63;;;;;;;;;;4966939;28;20849;-58
2023/10/31 01:01:26;;;;;;;1.40;0.63;;;;;;;;;;4972909;28;20596;-57
2023/10/31 01:03:53;;;;;;;2.37;0.60;;;;;;;;;;4972104;28;20453;-57
2023/10/31 01:06:21;;;;;;;1.30;0.57;;;;;;;;;;4973148;28;20516;-56
2023/10/31 01:08:48;;;;;;;1.30;0.60;;;;;;;;;;4972419;28;20975;-56
2023/10/31 01:11:16;;;;;;;1.37;0.70;;;;;;;;;;4973233;28;20562;-56
2023/10/31 01:13:43;;;;;;;1.30;0.60;;;;;;;;;;4971335;28;20477;-56
2023/10/31 01:16:11;;;;;;;1.60;0.60;;;;;;;;;;4973263;28;20481;-55
2023/10/31 01:18:39;;;;;;;1.40;0.60;;;;;;;;;;4971452;28;20830;-56
2023/10/31 01:21:06;;;;;;;1.30;0.50;;;;;;;;;;4973251;28;20842;-55
2023/10/31 01:23:33;;;;;;;1.40;0.60;;;;;;;;;;4972129;28;20449;-56
2023/10/31 01:26:00;;;;;;;1.60;0.70;;;;;;;;;;4972736;28;20481;-56
2023/10/31 01:28:28;;;;;;;1.30;0.50;;;;;;;;;;4972710;28;20829;-56
2023/10/31 01:30:55;;;;;;;1.50;0.60;;;;;;;;;;4973009;28;21208;-55
2023/10/31 01:33:23;;;;;;;3.37;0.70;;;;;;;;;;4972580;28;20445;-56
2023/10/31 01:35:51;;;;;;;1.30;0.57;;;;;;;;;;4973039;28;20445;-56
2023/10/31 01:38:18;;;;;;;1.37;0.57;;;;;;;;;;4972545;28;20504;-56
2023/10/31 01:40:45;;;;;;;1.47;0.50;;;;;;;;;;4972646;28;20527;-55
2023/10/31 01:43:12;;;;;;;1.30;0.53;;;;;;;;;;4972766;28;20535;-56
2023/10/31 01:45:40;;;;;;;1.70;0.40;;;;;;;;;;4972783;28;20837;-57
2023/10/31 01:48:07;;;;;;;1.20;0.40;;;;;;;;;;4972496;28;20971;-56
2023/10/31 01:50:36;;;;;;;1.20;0.40;;;;;;;;;;4971808;28;20871;-55
2023/10/31 01:53:03;;;;;;;1.97;0.50;;;;;;;;;;4972028;28;20457;-56
2023/10/31 01:55:30;;;;;;;1.30;0.40;;;;;;;;;;4972184;28;20535;-56
2023/10/31 01:57:57;;;;;;;1.23;0.50;;;;;;;;;;4972438;28;20457;-57
2023/10/31 02:00:25;;;;;;;1.40;0.60;;;;;;;;;;4971879;28;20480;-56
2023/10/31 02:02:55;;;;;;;1.20;0.60;;;;;;;;;;4972539;28;20532;-56
2023/10/31 02:05:22;;;;;;;1.20;0.47;;;;;;;;;;4972658;28;20866;-55
2023/10/31 02:07:51;;;;;;;4.90;0.60;;;;;;;;;;4972005;28;21015;-57
2023/10/31 02:10:18;;;;;;;1.20;0.50;;;;;;;;;;4971706;28;20505;-57
2023/10/31 02:12:45;;;;;;;2.13;0.50;;;;;;;;;;4971812;28;20893;-56
2023/10/31 02:15:13;;;;;;;1.40;0.50;;;;;;;;;;4971340;28;21007;-56
2023/10/31 02:17:40;;;;;;;1.20;0.40;;;;;;;;;;4971966;28;20944;-56
2023/10/31 02:20:08;;;;;;;1.30;0.47;;;;;;;;;;4971109;28;20994;-56
2023/10/31 02:22:37;;;;;;;1.90;0.40;;;;;;;;;;4971939;28;20476;-57
2023/10/31 02:25:04;;;;;;;1.20;0.50;;;;;;;;;;4971618;28;20485;-56
2023/10/31 02:27:31;;;;;;;1.20;0.50;;;;;;;;;;4971274;28;20484;-57
2023/10/31 02:29:59;;;;;;;1.30;0.50;;;;;;;;;;4970874;28;20473;-56
2023/10/31 02:32:26;;;;;;;1.20;0.40;;;;;;;;;;4970993;28;20562;-57
2023/10/31 02:34:54;;;;;;;1.30;0.40;;;;;;;;;;4971042;28;20449;-56
2023/10/31 02:37:21;;;;;;;2.17;0.60;;;;;;;;;;4970991;28;20959;-56
2023/10/31 02:39:49;;;;;;;1.30;0.50;;;;;;;;;;4970727;28;20473;-56
2023/10/31 02:42:17;;;;;;;1.40;0.57;;;;;;;;;;4971241;28;20809;-57
2023/10/31 02:44:44;;;;;;;1.30;0.60;;;;;;;;;;4970991;28;20925;-56
2023/10/31 02:47:11;;;;;;;1.20;0.43;;;;;;;;;;4971027;28;20489;-56
2023/10/31 02:49:38;;;;;;;1.40;0.50;;;;;;;;;;4970549;28;20465;-57
2023/10/31 02:52:06;;;;;;;1.20;0.40;;;;;;;;;;4971736;28;20448;-56
2023/10/31 02:54:33;;;;;;;1.30;0.50;;;;;;;;;;4971617;28;20943;-57
2023/10/31 02:57:02;;;;;;;1.20;0.40;;;;;;;;;;4971832;28;20928;-56
2023/10/31 03:02:00;;;;;;;1.30;0.60;;;;;;;;;;4969095;28;20489;-57
2023/10/31 03:04:27;;;;;;;1.30;0.40;;;;;;;;;;4971566;28;20448;-55
2023/10/31 03:06:54;;;;;;;1.20;0.50;;;;;;;;;;4971007;28;20540;-55
2023/10/31 03:09:22;;;;;;;1.27;0.50;;;;;;;;;;4970825;28;20535;-56
2023/10/31 03:11:49;;;;;;;1.30;0.50;;;;;;;;;;4971540;28;20503;-54
2023/10/31 03:14:17;;;;;;;2.43;0.70;;;;;;;;;;4971098;28;20476;-55
2023/10/31 03:16:45;;;;;;;2.10;0.50;;;;;;;;;;4971287;28;20441;-55
2023/10/31 03:19:12;;;;;;;1.80;0.47;;;;;;;;;;4970742;28;20452;-58
2023/10/31 03:21:39;;;;;;;2.33;0.57;;;;;;;;;;4971132;28;20493;-55
2023/10/31 03:24:07;;;;;;;1.30;0.57;;;;;;;;;;4969591;28;20552;-53
2023/10/31 03:26:34;;;;;;;1.20;0.50;;;;;;;;;;4970414;28;20481;-56
2023/10/31 03:29:01;;;;;;;1.30;0.60;;;;;;;;;;4969847;28;20497;-55
2023/10/31 03:31:30;;;;;;;1.40;0.60;;;;;;;;;;4969578;28;20500;-58
2023/10/31 03:33:57;;;;;;;1.73;0.60;;;;;;;;;;4969689;28;20448;-56
2023/10/31 03:36:24;;;;;;;1.30;0.50;;;;;;;;;;4969582;28;20477;-56
2023/10/31 03:38:52;;;;;;;1.40;0.70;;;;;;;;;;4968281;28;20944;-54
2023/10/31 03:41:19;;;;;;;1.80;0.50;;;;;;;;;;4969797;28;20557;-58
2023/10/31 03:43:47;;;;;;;1.20;0.50;;;;;;;;;;4970285;28;20481;-56
2023/10/31 03:46:14;;;;;;;1.30;0.60;;;;;;;;;;4971279;28;20539;-55
2023/10/31 03:48:43;;;;;;;2.00;0.60;;;;;;;;;;4974992;28;20519;-54
2023/10/31 03:51:10;;;;;;;1.60;0.60;;;;;;;;;;4974258;28;20504;-56
2023/10/31 03:53:37;;;;;;;1.33;0.60;;;;;;;;;;4974798;28;20441;-58
2023/10/31 03:56:05;;;;;;;1.97;0.60;;;;;;;;;;4975132;28;20441;-56
2023/10/31 03:58:32;;;;;;;1.50;0.70;;;;;;;;;;4973947;28;20515;-54
2023/10/31 04:01:00;;;;;;;1.50;0.80;;;;;;;;;;4974611;28;20566;-55
2023/10/31 04:03:27;;;;;;;1.30;0.60;;;;;;;;;;4974432;28;20539;-55
2023/10/31 04:05:55;;;;;;;1.67;0.60;;;;;;;;;;4975193;28;20481;-55
2023/10/31 04:08:23;;;;;;;2.10;0.67;;;;;;;;;;4974395;28;20534;-53
2023/10/31 04:10:50;;;;;;;1.30;0.53;;;;;;;;;;4974927;28;20563;-54
2023/10/31 04:13:17;;;;;;;1.90;1.13;;;;;;;;;;4974608;28;20480;-57
2023/10/31 04:15:44;;;;;;;1.57;0.70;;;;;;;;;;4974019;28;20539;-57
2023/10/31 04:18:12;;;;;;;2.10;0.60;;;;;;;;;;4974050;28;20476;-56
2023/10/31 04:20:39;;;;;;;1.60;0.83;;;;;;;;;;4973898;28;20842;-56
2023/10/31 04:23:08;;;;;;;1.50;0.60;;;;;;;;;;4973222;28;20796;-55
2023/10/31 04:25:35;;;;;;;1.50;0.70;;;;;;;;;;4973448;28;20449;-54
2023/10/31 04:28:02;;;;;;;1.47;0.80;;;;;;;;;;4974772;28;20521;-53
2023/10/31 04:33:33;;;;;;;1.50;0.73;;;;;;;;;;4974033;28;20415;-56
2023/10/31 04:36:02;;;;;;;1.50;0.60;;;;;;;;;;4973944;28;20508;-56
2023/10/31 04:38:31;;;;;;;1.40;0.67;;;;;;;;;;4973381;28;20448;-55
2023/10/31 04:40:58;;;;;;;2.47;0.87;;;;;;;;;;4973887;28;20473;-53
2023/10/31 04:46:28;;;;;;;1.47;0.93;;;;;;;;;;4972917;28;20466;-54
2023/10/31 04:48:56;;;;;;;1.50;0.87;;;;;;;;;;4973417;28;20488;-57
2023/10/31 04:51:23;;;;;;;2.00;1.17;;;;;;;;;;4974180;28;20460;-56
2023/10/31 04:53:52;;;;;;;2.10;1.20;;;;;;;;;;4973023;28;20452;-57
2023/10/31 04:56:19;;;;;;;2.20;1.63;;;;;;;;;;4973744;28;20500;-55
2023/10/31 04:58:46;;;;;;;1.80;1.27;;;;;;;;;;4972598;28;20875;-55
2023/10/31 05:01:14;;;;;;;1.50;1.20;;;;;;;;;;4973589;28;20919;-55
2023/10/31 05:03:41;;;;;;;2.23;1.37;;;;;;;;;;4974045;28;20453;-54
2023/10/31 05:06:08;;;;;;;3.17;1.50;;;;;;;;;;4973813;28;20562;-53
2023/10/31 05:08:36;;;;;;;2.27;1.80;;;;;;;;;;4973839;28;20535;-54
2023/10/31 05:11:05;;;;;;;2.60;2.10;;;;;;;;;;4973923;28;20497;-57
2023/10/31 05:13:32;;;;;;;3.60;2.30;;;;;;;;;;4973655;28;20944;-55
2023/10/31 05:16:00;;;;;;;3.20;2.17;;;;;;;;;;4974251;28;20442;-55
2023/10/31 05:18:27;;;;;;;2.30;1.80;;;;;;;;;;4973668;28;20532;-57
2023/10/31 05:20:55;;;;;;;2.40;2.00;;;;;;;;;;4973860;28;20461;-54
2023/10/31 05:23:22;;;;;;;2.50;1.67;;;;;;;;;;4973472;28;20515;-55
2023/10/31 05:25:49;;;;;;;2.30;1.70;;;;;;;;;;4973779;28;20449;-53
2023/10/31 05:28:18;;;;;;;2.30;1.90;;;;;;;;;;4973807;28;20445;-57
2023/10/31 05:30:45;;;;;;;2.10;1.83;;;;;;;;;;4971314;28;20469;-55
2023/10/31 05:33:12;;;;;;;1.80;1.30;;;;;;;;;;4973534;28;20449;-54
2023/10/31 05:35:40;;;;;;;2.83;1.57;;;;;;;;;;4973534;28;20500;-56
2023/10/31 05:38:07;;;;;;;2.80;1.60;;;;;;;;;;4973606;28;20858;-55
2023/10/31 05:40:35;;;;;;;2.20;1.40;;;;;;;;;;4973446;28;20465;-57
2023/10/31 05:43:02;;;;;;;2.00;1.30;;;;;;;;;;4973297;28;20449;-56
2023/10/31 05:45:31;;;;;;;1.90;1.53;;;;;;;;;;4973273;28;20464;-53
2023/10/31 05:47:58;;;;;;;2.30;1.50;;;;;;;;;;4973296;28;21069;-55
2023/10/31 05:50:26;;;;;;;1.83;1.50;;;;;;;;;;4972297;28;20536;-56
2023/10/31 05:52:53;;;;;;;2.63;2.00;;;;;;;;;;4973384;28;20507;-56
2023/10/31 05:55:20;;;;;;;2.03;1.70;;;;;;;;;;4973011;28;20446;-55
2023/10/31 05:57:48;;;;;;;1.60;1.30;;;;;;;;;;4972934;28;20496;-54
2023/10/31 06:00:15;;;;;;;4.10;1.20;;;;;;;;;;4971777;28;20547;-55
2023/10/31 06:02:44;;;;;;;1.77;1.00;;;;;;;;;;4969974;28;20437;-54
2023/10/31 06:05:11;;;;;;;1.60;1.30;;;;;;;;;;4971171;28;20469;-58
2023/10/31 06:07:38;;;;;;;1.77;1.40;;;;;;;;;;4970224;28;20999;-56
2023/10/31 06:10:06;;;;;;;1.93;1.40;;;;;;;;;;4970449;28;20520;-55
2023/10/31 06:12:33;;;;;;;2.80;1.97;;;;;;;;;;4970964;28;20460;-56
2023/10/31 06:15:01;;;;;;;3.33;2.90;;;;;;;;;;4971047;28;20832;-55
2023/10/31 06:17:30;;;;;;;2.40;2.20;;;;;;;;;;4971745;28;20488;-55
2023/10/31 06:19:59;;;;;;;2.20;1.67;;;;;;;;;;4971796;28;20497;-55
2023/10/31 06:22:26;;;;;;;2.60;1.80;;;;;;;;;;4971782;28;20537;-57
2023/10/31 06:24:53;;;;;;;3.13;2.07;;;;;;;;;;4972107;28;20441;-56
2023/10/31 06:27:21;;;;;;;3.13;2.67;;;;;;;;;;4972177;28;20469;-56
2023/10/31 06:29:48;;;;;;;2.80;2.23;;;;;;;;;;4971885;28;20469;-53
2023/10/31 06:32:15;;;;;;;2.33;2.03;;;;;;;;;;4971781;28;20523;-53
2023/10/31 06:34:42;;;;;;;2.40;2.20;;;;;;;;;;4971775;28;20940;-55
2023/10/31 06:37:11;;;;;;;2.53;1.77;;;;;;;;;;4972020;28;21002;-55
2023/10/31 06:39:38;;;;;;;2.60;1.47;;;;;;;;;;4971458;28;20527;-53
2023/10/31 06:42:06;;;;;;;3.10;1.57;;;;;;;;;;4971898;28;20441;-55
2023/10/31 06:44:33;;;;;;;2.23;1.37;;;;;;;;;;4971616;28;20986;-55
2023/10/31 06:47:00;;;;;;;2.07;0.77;;;;;;;;;;4971634;28;20512;-55
2023/10/31 06:49:28;;;;;;;1.57;0.70;;;;;;;;;;4971455;28;20441;-54
2023/10/31 06:51:55;;;;;;;2.00;0.83;;;;;;;;;;4971896;28;20445;-55
2023/10/31 06:54:23;;;;;;;1.40;0.60;;;;;;;;;;4971726;28;20471;-56
2023/10/31 06:56:51;;;;;;;1.90;0.63;;;;;;;;;;4971926;28;20503;-56
2023/10/31 06:59:18;;;;;;;1.40;0.77;;;;;;;;;;4971210;28;20437;-53
2023/10/31 07:01:46;;;;;;;2.50;0.80;;;;;;;;;;4971495;28;20539;-53
2023/10/31 07:04:14;;;;;;;2.07;0.80;;;;;;;;;;4971565;28;20452;-53
2023/10/31 07:06:41;;;;;;;1.50;0.83;;;;;;;;;;4971597;28;20477;-55
2023/10/31 07:09:09;;;;;;;1.70;0.90;;;;;;;;;;4969641;28;20437;-56
2023/10/31 07:11:38;;;;;;;1.60;0.93;;;;;;;;;;4969717;28;20505;-55
2023/10/31 07:14:05;;;;;;;1.63;1.10;;;;;;;;;;4967483;28;20995;-56
2023/10/31 07:16:33;;;;;;;1.60;0.87;;;;;;;;;;4970057;28;20521;-55
2023/10/31 07:19:00;;;;;;;1.60;1.00;;;;;;;;;;4969849;28;20449;-57
2023/10/31 07:21:28;;;;;;;3.23;1.70;;;;;;;;;;4969445;28;20461;-54
2023/10/31 07:23:56;;;;;;;2.90;1.70;;;;;;;;;;4971047;28;20445;-56
2023/10/31 07:26:23;;;;;;;2.33;0.80;;;;;;;;;;4971032;28;20441;-56
2023/10/31 07:28:52;;;;;;;1.30;0.60;;;;;;;;;;4969252;28;20449;-57
2023/10/31 07:31:19;;;;;;;1.80;1.40;;;;;;;;;;4968915;28;20465;-53
2023/10/31 07:33:47;;;;;;;3.03;2.53;;;;;;;;;;4971509;28;20445;-55
2023/10/31 07:36:14;;;;;;;2.63;1.90;;;;;;;;;;4971258;28;20445;-54
2023/10/31 07:38:42;;;;;;;3.30;1.97;;;;;;;;;;4970635;28;20433;-55
2023/10/31 07:41:09;;;;;;;3.30;2.43;;;;;;;;;;4971271;28;20461;-55
2023/10/31 07:43:36;;;;;;;3.50;3.20;;;;;;;;;;4971002;28;20438;-54
2023/10/31 07:46:05;;;;;;;3.63;2.20;;;;;;;;;;4971515;28;20469;-55
2023/10/31 07:48:33;;;;;;;2.80;2.43;;;;;;;;;;4971045;28;20476;-56
2023/10/31 07:51:00;;;;;;;3.77;3.37;;;;;;;;;;4971746;28;20523;-57
2023/10/31 07:53:27;;;;;;;4.00;2.83;;;;;;;;;;4970580;28;20457;-56
2023/10/31 07:55:54;;;;;;;2.83;2.23;;;;;;;;;;4970721;28;20476;-56
2023/10/31 07:58:22;;;;;;;7.87;7.07;;;;;;;;;;4968420;28;20484;-55
2023/10/31 08:00:49;;;;;;;2.70;1.50;;;;;;;;;;4969649;28;20472;-53
2023/10/31 08:03:17;;;;;;;2.83;1.70;;;;;;;;;;4965746;28;20548;-59
2023/10/31 08:05:46;;;;;;;4.70;1.60;;;;;;;;;;4967012;28;20571;-58
2023/10/31 08:08:13;;;;;;;3.00;2.70;;;;;;;;;;4965110;28;20602;-55
2023/10/31 08:10:41;;;;;;;2.57;1.57;;;;;;;;;;4962315;28;20652;-55
2023/10/31 08:13:08;;;;;;;19.80;17.70;;;;;;;;;;4961084;28;20923;-57
2023/10/31 08:15:35;;;;;;;7.90;7.13;;;;;;;;;;4961894;28;20500;-57
2023/10/31 08:18:02;;;;;;;3.10;2.60;;;;;;;;;;4962079;28;20479;-56
2023/10/31 08:20:33;;;;;;;4.43;3.50;;;;;;;;;;4960611;28;20526;-56
2023/10/31 08:23:01;;;;;;;3.13;2.70;;;;;;;;;;4962565;28;20784;-54
2023/10/31 08:25:29;;;;;;;4.30;3.10;;;;;;;;;;4961188;28;20504;-54
2023/10/31 08:27:56;;;;;;;2.17;1.40;;;;;;;;;;4965717;28;20567;-56
2023/10/31 08:30:24;;;;;;;2.17;1.00;;;;;;;;;;4961281;28;20542;-58
2023/10/31 08:32:51;;;;;;;1.50;0.70;;;;;;;;;;4965316;28;20484;-57
2023/10/31 08:35:18;;;;;;;1.67;1.10;;;;;;;;;;4963737;28;20548;-54
2023/10/31 08:37:46;;;;;;;2.30;1.40;;;;;;;;;;4966937;28;20445;-54
2023/10/31 08:40:14;;;;;;;2.43;1.23;;;;;;;;;;4964491;28;20547;-55
2023/10/31 08:42:42;;;;;;;2.33;1.20;;;;;;;;;;4965531;28;20436;-54
2023/10/31 08:45:10;;;;;;;2.40;2.20;;;;;;;;;;4965131;28;20540;-54
2023/10/31 08:47:37;;;;;;;2.80;1.13;;;;;;;;;;4965454;28;20520;-58
2023/10/31 08:50:04;;;;;;;2.33;1.00;;;;;;;;;;4965405;28;20964;-55
2023/10/31 08:52:32;;;;;;;20.17;11.27;;;;;;;;;;4965172;28;20827;-56
2023/10/31 08:54:59;;;;;;;5.03;3.97;;;;;;;;;;4966196;28;20472;-56
2023/10/31 08:57:28;;;;;;;12.27;10.47;;;;;;;;;;4965172;28;20469;-54
2023/10/31 09:02:25;;;;;;;4.77;2.40;;;;;;;;;;4966317;28;20525;-57
2023/10/31 09:04:53;;;;;;;3.23;2.00;;;;;;;;;;4969055;28;20445;-58
2023/10/31 09:07:20;;;;;;;2.10;1.20;;;;;;;;;;4957770;28;20491;-57
2023/10/31 09:09:47;;;;;;;1.60;0.87;;;;;;;;;;4969553;28;20803;-57
2023/10/31 09:12:14;;;;;;;2.77;1.73;;;;;;;;;;4968356;28;20543;-57
2023/10/31 09:14:43;;;;;;;2.63;1.53;;;;;;;;;;4956468;28;20437;-57
2023/10/31 09:17:10;;;;;;;2.47;1.60;;;;;;;;;;4953180;29;20960;-57
2023/10/31 09:19:37;;;;;;;2.83;1.50;;;;;;;;;;4968570;28;20454;-57
2023/10/31 09:22:05;;;;;;;1.53;0.80;;;;;;;;;;4969010;28;20461;-57
2023/10/31 09:24:32;;;;;;;2.40;1.57;;;;;;;;;;4970816;28;20931;-57
2023/10/31 09:26:59;;;;;;;1.97;0.80;;;;;;;;;;4972508;28;20596;-57
2023/10/31 09:29:27;;;;;;;2.43;1.20;;;;;;;;;;4971389;28;20484;-57
2023/10/31 09:31:56;;;;;;;2.40;1.50;;;;;;;;;;4972263;28;20847;-57
2023/10/31 09:34:23;;;;;;;1.87;0.93;;;;;;;;;;4972740;28;20449;-57
2023/10/31 09:36:50;;;;;;;2.93;1.20;;;;;;;;;;4969548;28;20454;-57
2023/10/31 09:39:17;;;;;;;1.73;0.83;;;;;;;;;;4968096;28;20499;-57
2023/10/31 09:41:45;;;;;;;2.57;1.63;;;;;;;;;;4972377;28;20886;-58
2023/10/31 09:44:12;;;;;;;3.17;1.80;;;;;;;;;;4972999;28;20940;-57
2023/10/31 09:46:40;;;;;;;1.93;0.87;;;;;;;;;;4972030;28;20998;-57
2023/10/31 09:49:10;;;;;;;1.60;1.00;;;;;;;;;;4972392;28;20572;-57
2023/10/31 09:51:38;;;;;;;1.60;0.73;;;;;;;;;;4971702;28;21174;-57
2023/10/31 09:54:07;;;;;;;1.57;0.90;;;;;;;;;;4965221;28;20434;-57
2023/10/31 09:56:35;;;;;;;1.70;0.90;;;;;;;;;;4960189;28;20449;-57
2023/10/31 09:59:02;;;;;;;1.60;1.10;;;;;;;;;;4971620;28;20452;-56
2023/10/31 10:01:30;;;;;;;1.70;1.00;;;;;;;;;;4971405;28;20584;-57
2023/10/31 10:03:57;;;;;;;2.33;1.00;;;;;;;;;;4972417;28;20456;-57
2023/10/31 10:06:26;;;;;;;1.50;1.00;;;;;;;;;;4972947;28;20525;-57
2023/10/31 10:08:53;;;;;;;4.13;1.10;;;;;;;;;;4972742;28;20485;-57
2023/10/31 10:11:21;;;;;;;1.80;1.00;;;;;;;;;;4973113;28;20473;-57
2023/10/31 10:13:48;;;;;;;2.53;1.57;;;;;;;;;;4972846;28;20451;-57
2023/10/31 10:16:29;;;;;;;1.87;1.30;;;;;;;;;;4972979;28;20519;-57
2023/10/31 10:18:56;;;;;;;1.80;1.10;;;;;;;;;;4973000;28;20911;-57
2023/10/31 10:21:23;;;;;;;1.80;0.90;;;;;;;;;;4972443;28;20468;-57
2023/10/31 10:23:54;;;;;;;1.50;0.80;;;;;;;;;;4972768;28;20441;-57
2023/10/31 10:26:25;;;;;;;1.60;0.70;;;;;;;;;;4972946;28;20440;-58
2023/10/31 10:28:54;;;;;;;3.43;1.10;;;;;;;;;;4972282;28;20484;-57
2023/10/31 10:31:21;;;;;;;1.77;0.80;;;;;;;;;;4972503;28;20476;-57
2023/10/31 10:33:48;;;;;;;1.40;0.60;;;;;;;;;;4972375;28;20444;-58
2023/10/31 10:36:16;;;;;;;1.83;0.90;;;;;;;;;;4972406;28;20512;-57
2023/10/31 10:38:44;;;;;;;1.60;0.80;;;;;;;;;;4972365;28;20444;-57
2023/10/31 10:41:14;;;;;;;2.87;1.00;;;;;;;;;;4972443;28;20846;-57
2023/10/31 10:43:42;;;;;;;1.50;0.90;;;;;;;;;;4972296;28;20448;-57
2023/10/31 10:46:13;;;;;;;1.57;0.97;;;;;;;;;;4972532;28;20523;-58
2023/10/31 10:48:43;;;;;;;1.97;1.20;;;;;;;;;;4971857;28;20840;-57
2023/10/31 10:51:16;;;;;;;2.57;1.30;;;;;;;;;;4968990;28;20461;-57
2023/10/31 10:53:46;;;;;;;2.23;1.13;;;;;;;;;;4961069;28;20452;-57
2023/10/31 10:56:18;;;;;;;2.27;1.13;;;;;;;;;;4961110;28;20472;-57
2023/10/31 10:58:52;;;;;;;1.70;1.00;;;;;;;;;;4960453;28;20449;-57
2023/10/31 11:01:20;;;;;;;1.93;1.40;;;;;;;;;;4961701;28;20559;-57
2023/10/31 11:03:48;;;;;;;1.60;1.27;;;;;;;;;;4969576;28;20448;-57
2023/10/31 11:06:15;;;;;;;2.20;1.50;;;;;;;;;;4953682;28;20995;-57
2023/10/31 11:08:43;;;;;;;2.47;1.37;;;;;;;;;;4969534;28;20491;-57
2023/10/31 11:11:10;;;;;;;1.50;1.00;;;;;;;;;;4966061;28;21002;-57
2023/10/31 11:13:39;;;;;;;1.53;0.97;;;;;;;;;;4971892;28;20511;-58
2023/10/31 11:16:11;;;;;;;1.77;0.90;;;;;;;;;;4967062;28;21010;-57
2023/10/31 11:18:38;;;;;;;1.60;0.80;;;;;;;;;;4965953;28;20456;-57
2023/10/31 11:21:06;;;;;;;1.40;0.87;;;;;;;;;;4971805;28;20848;-57
2023/10/31 11:23:33;;;;;;;1.37;0.70;;;;;;;;;;4965815;28;20446;-57
2023/10/31 11:26:00;;;;;;;1.40;0.70;;;;;;;;;;4971971;28;20449;-57
2023/10/31 11:28:27;;;;;;;1.50;0.60;;;;;;;;;;4965487;28;20513;-57
2023/10/31 11:31:00;;;;;;;1.50;0.70;;;;;;;;;;4970171;28;20508;-58
2023/10/31 11:33:28;;;;;;;1.47;0.80;;;;;;;;;;4970142;28;20532;-57
2023/10/31 11:36:01;;;;;;;1.40;0.80;;;;;;;;;;4961799;28;20476;-58
2023/10/31 11:38:36;;;;;;;1.50;0.90;;;;;;;;;;4960540;28;20509;-58
2023/10/31 11:41:05;;;;;;;1.80;0.97;;;;;;;;;;4963687;28;20472;-58
2023/10/31 11:43:50;;;;;;;1.73;1.13;;;;;;;;;;4971064;28;20481;-57
2023/10/31 11:46:22;;;;;;;3.70;2.00;;;;;;;;;;4970727;28;20503;-56
2023/10/31 11:48:51;;;;;;;2.83;1.07;;;;;;;;;;4971309;28;20488;-57
2023/10/31 11:51:18;;;;;;;1.87;0.87;;;;;;;;;;4971391;28;20920;-57
2023/10/31 11:53:46;;;;;;;1.57;0.77;;;;;;;;;;4971355;28;20457;-57
2023/10/31 11:56:13;;;;;;;1.63;0.60;;;;;;;;;;4964948;28;20827;-57
2023/10/31 11:58:40;;;;;;;1.77;0.80;;;;;;;;;;4955278;28;20445;-57
2023/10/31 12:01:09;;;;;;;1.80;0.60;;;;;;;;;;4953783;28;20478;-57
2023/10/31 12:03:41;;;;;;;1.60;1.10;;;;;;;;;;4952530;28;20969;-58
2023/10/31 12:06:09;;;;;;;1.47;0.70;;;;;;;;;;4955033;28;20450;-57
2023/10/31 12:08:37;;;;;;;1.77;0.90;;;;;;;;;;4958872;28;20576;-57
2023/10/31 12:11:06;;;;;;;1.40;0.77;;;;;;;;;;4960386;28;20516;-57
2023/10/31 12:13:33;;;;;;;2.00;1.00;;;;;;;;;;4962078;28;20493;-57
2023/10/31 12:16:01;;;;;;;1.80;1.10;;;;;;;;;;4958224;28;20477;-58
2023/10/31 12:18:29;;;;;;;2.03;1.30;;;;;;;;;;4961544;28;20528;-57
2023/10/31 12:20:57;;;;;;;1.57;1.03;;;;;;;;;;4960691;28;20598;-57
2023/10/31 12:23:25;;;;;;;2.10;1.57;;;;;;;;;;4961090;28;20816;-57
2023/10/31 12:25:53;;;;;;;1.70;0.97;;;;;;;;;;4961560;28;20440;-57
2023/10/31 12:28:20;;;;;;;1.90;1.00;;;;;;;;;;4961196;28;20473;-58
2023/10/31 12:30:48;;;;;;;1.50;0.90;;;;;;;;;;4961642;28;20464;-58
2023/10/31 12:33:15;;;;;;;1.40;0.70;;;;;;;;;;4960158;28;20473;-57
2023/10/31 12:35:43;;;;;;;1.40;0.80;;;;;;;;;;4960057;28;20437;-57
2023/10/31 12:38:13;;;;;;;1.60;0.90;;;;;;;;;;4962909;28;20861;-57
2023/10/31 12:40:41;;;;;;;2.60;0.80;;;;;;;;;;4958560;28;20984;-57
2023/10/31 12:43:09;;;;;;;1.50;0.80;;;;;;;;;;4957756;28;20521;-58
2023/10/31 12:45:37;;;;;;;1.50;0.70;;;;;;;;;;4959891;28;20448;-57
2023/10/31 12:48:04;;;;;;;1.60;0.80;;;;;;;;;;4959853;28;20473;-57
2023/10/31 12:50:32;;;;;;;1.80;1.00;;;;;;;;;;4961267;28;20550;-58
2023/10/31 12:53:00;;;;;;;1.83;0.90;;;;;;;;;;4960099;28;20504;-58
2023/10/31 12:55:29;;;;;;;1.80;0.93;;;;;;;;;;4961125;28;20987;-57
2023/10/31 12:57:57;;;;;;;1.60;1.10;;;;;;;;;;4957591;28;20450;-57
2023/10/31 13:00:24;;;;;;;1.80;1.30;;;;;;;;;;4957943;28;20469;-57
2023/10/31 13:02:52;;;;;;;1.70;0.93;;;;;;;;;;4956934;28;20442;-57
2023/10/31 13:05:20;;;;;;;1.50;0.80;;;;;;;;;;4958847;28;20529;-58
2023/10/31 13:07:51;;;;;;;1.60;0.93;;;;;;;;;;4961263;28;20440;-57
2023/10/31 13:10:18;;;;;;;1.50;0.70;;;;;;;;;;4959315;28;20988;-58
2023/10/31 13:12:47;;;;;;;1.53;0.77;;;;;;;;;;4961545;28;20555;-57
2023/10/31 13:15:15;;;;;;;1.47;0.73;;;;;;;;;;4959493;28;20500;-58
2023/10/31 13:17:43;;;;;;;1.63;0.90;;;;;;;;;;4960450;28;20838;-57
2023/10/31 13:20:11;;;;;;;2.13;0.80;;;;;;;;;;4958670;28;20441;-57
2023/10/31 13:22:38;;;;;;;1.40;0.70;;;;;;;;;;4961951;28;20525;-58
2023/10/31 13:25:07;;;;;;;1.93;0.83;;;;;;;;;;4959298;28;20497;-58
2023/10/31 13:27:35;;;;;;;1.70;0.90;;;;;;;;;;4961529;28;20446;-57
2023/10/31 13:30:04;;;;;;;1.80;0.90;;;;;;;;;;4968065;28;21019;-58
2023/10/31 13:32:31;;;;;;;1.60;0.77;;;;;;;;;;4963105;28;20933;-57
2023/10/31 13:34:59;;;;;;;2.43;1.03;;;;;;;;;;4973593;28;20865;-57
2023/10/31 13:37:26;;;;;;;1.40;0.70;;;;;;;;;;4973782;28;20511;-57
2023/10/31 13:39:53;;;;;;;1.63;0.90;;;;;;;;;;4973456;28;20504;-57
2023/10/31 13:42:20;;;;;;;2.13;0.70;;;;;;;;;;4973514;28;20477;-58
2023/10/31 13:44:48;;;;;;;1.70;0.90;;;;;;;;;;4973203;28;20449;-57
2023/10/31 13:47:17;;;;;;;1.60;0.90;;;;;;;;;;4971316;28;20476;-57
2023/10/31 13:49:44;;;;;;;1.50;0.73;;;;;;;;;;4969158;28;20508;-58
2023/10/31 13:52:12;;;;;;;1.83;0.83;;;;;;;;;;4959774;28;20489;-58
2023/10/31 13:54:39;;;;;;;2.13;0.60;;;;;;;;;;4956762;28;20465;-57
2023/10/31 13:57:07;;;;;;;1.50;0.80;;;;;;;;;;4951615;28;20453;-58
2023/10/31 13:59:34;;;;;;;1.50;0.73;;;;;;;;;;4967598;28;20449;-57
2023/10/31 14:02:01;;;;;;;1.50;0.77;;;;;;;;;;4947612;28;20490;-57
2023/10/31 14:04:30;;;;;;;2.80;1.20;;;;;;;;;;4956982;28;20458;-57
2023/10/31 14:06:58;;;;;;;1.90;1.10;;;;;;;;;;4959243;28;20465;-57
2023/10/31 14:09:25;;;;;;;2.67;1.43;;;;;;;;;;4955623;28;20580;-58
2023/10/31 14:11:53;;;;;;;1.87;0.80;;;;;;;;;;4955122;28;20457;-57
2023/10/31 14:14:20;;;;;;;3.30;1.30;;;;;;;;;;4955285;28;20501;-57
2023/10/31 14:16:48;;;;;;;2.40;1.40;;;;;;;;;;4953713;28;20501;-57
2023/10/31 14:19:17;;;;;;;2.10;1.27;;;;;;;;;;4952858;28;20681;-57
2023/10/31 14:21:46;;;;;;;2.33;1.30;;;;;;;;;;4954926;28;20467;-57
2023/10/31 14:24:13;;;;;;;1.73;1.00;;;;;;;;;;4954419;28;20512;-57
2023/10/31 14:26:42;;;;;;;1.60;0.97;;;;;;;;;;4954709;28;20445;-57
2023/10/31 14:29:11;;;;;;;1.90;1.20;;;;;;;;;;4951916;28;20921;-57
2023/10/31 14:31:41;;;;;;;2.13;1.13;;;;;;;;;;4953425;28;20972;-57
2023/10/31 14:34:09;;;;;;;2.20;1.00;;;;;;;;;;4953058;28;20537;-57
2023/10/31 14:36:36;;;;;;;2.00;1.23;;;;;;;;;;4951069;28;20494;-57
2023/10/31 14:39:06;;;;;;;2.07;1.40;;;;;;;;;;4953577;28;20902;-57
2023/10/31 14:41:33;;;;;;;1.90;1.27;;;;;;;;;;4952259;28;20489;-57
2023/10/31 14:44:01;;;;;;;3.40;1.23;;;;;;;;;;4950645;28;20874;-57
2023/10/31 14:46:29;;;;;;;2.37;1.30;;;;;;;;;;4952602;28;20462;-57
2023/10/31 14:48:56;;;;;;;2.97;1.20;;;;;;;;;;4951158;28;20512;-57
2023/10/31 14:51:23;;;;;;;1.80;1.20;;;;;;;;;;4948909;28;20466;-58
2023/10/31 14:53:50;;;;;;;2.83;1.50;;;;;;;;;;4966074;28;20527;-57
2023/10/31 14:56:19;;;;;;;4.67;1.17;;;;;;;;;;4961081;28;20473;-58
2023/10/31 14:58:46;;;;;;;2.13;1.30;;;;;;;;;;4967417;28;20952;-58